Time;durP1;ratioP1;P1;durP2;ratioP2;P2;SDS_P1;SDS_P2;PMS_P1;PMS_P2;Temp;Humidity;BMP_temperature;BMP_pressure;BME280_temperature;BME280_humidity;BME280_pressure;Samples;Min_cycle;Max_cycle;Signal;HPM_P1;HPM_P2
2022/10/30 00:00:20;;;;;;;5.95;0.80;;;;;;;14.32;100.00;101426.69;5045187;28;20115;-85
2022/10/30 00:02:47;;;;;;;4.18;0.77;;;;;;;14.31;100.00;101425.84;5031623;28;20453;-86
2022/10/30 00:05:12;;;;;;;6.88;1.00;;;;;;;14.27;100.00;101424.50;5051855;28;20352;-84
2022/10/30 00:07:38;;;;;;;4.13;0.52;;;;;;;14.27;100.00;101420.06;5051916;28;20033;-84
2022/10/30 00:10:03;;;;;;;8.25;0.60;;;;;;;14.28;100.00;101421.72;5030426;28;20150;-85
2022/10/30 00:12:29;;;;;;;4.88;0.60;;;;;;;14.27;100.00;101422.69;5045894;28;20468;-85
2022/10/30 00:14:54;;;;;;;4.35;1.13;;;;;;;14.27;100.00;101416.63;5047273;28;20457;-85
2022/10/30 00:17:20;;;;;;;5.45;0.50;;;;;;;14.24;100.00;101416.91;5046930;28;20033;-84
2022/10/30 00:19:45;;;;;;;3.30;0.85;;;;;;;14.16;100.00;101411.59;5048581;28;20039;-82
2022/10/30 00:22:10;;;;;;;2.00;0.80;;;;;;;14.16;100.00;101401.94;5053354;28;20136;-84
2022/10/30 00:24:36;;;;;;;6.57;0.80;;;;;;;14.13;100.00;101406.63;5034303;28;20041;-83
2022/10/30 00:27:01;;;;;;;6.53;0.88;;;;;;;14.14;100.00;101408.28;5045109;28;20025;-84
2022/10/30 00:29:27;;;;;;;6.65;0.80;;;;;;;14.14;100.00;101409.13;5043842;28;20040;-85
2022/10/30 00:31:52;;;;;;;4.03;0.60;;;;;;;14.21;100.00;101404.09;5048848;28;20051;-86
2022/10/30 00:34:18;;;;;;;4.75;0.63;;;;;;;14.24;100.00;101403.81;5056535;28;20031;-84
2022/10/30 00:36:43;;;;;;;6.97;0.75;;;;;;;14.29;100.00;101394.53;5048347;28;20119;-84
2022/10/30 00:39:09;;;;;;;2.13;0.45;;;;;;;14.34;100.00;101398.53;5046039;28;20051;-83
2022/10/30 00:41:35;;;;;;;4.75;0.57;;;;;;;14.36;100.00;101393.97;5047049;28;20070;-85
2022/10/30 00:44:01;;;;;;;4.30;0.60;;;;;;;14.34;100.00;101393.28;5044283;28;20090;-84
2022/10/30 00:46:37;;;;;;;3.67;0.60;;;;;;;14.31;100.00;101397.00;5044500;28;20045;-85
2022/10/30 00:49:11;;;;;;;6.18;0.75;;;;;;;14.32;100.00;101390.81;5045685;28;20037;-84
2022/10/30 00:51:40;;;;;;;3.75;0.70;;;;;;;14.24;100.00;101391.53;5046217;28;20077;-83
2022/10/30 00:54:06;;;;;;;11.07;0.60;;;;;;;14.21;100.00;101391.81;5052449;28;20037;-84
2022/10/30 00:56:33;;;;;;;5.95;0.90;;;;;;;14.18;100.00;101383.41;5034739;28;20498;-85
2022/10/30 00:59:09;;;;;;;7.45;0.73;;;;;;;14.19;100.00;101385.06;5029620;28;20071;-85
2022/10/30 01:01:37;;;;;;;4.70;0.60;;;;;;;14.27;100.00;101388.63;5051346;28;20047;-84
2022/10/30 01:04:05;;;;;;;9.93;1.42;;;;;;;14.11;100.00;101380.59;5058123;28;20046;-87
2022/10/30 01:06:33;;;;;;;8.10;1.20;;;;;;;13.93;100.00;101382.31;5032424;28;20043;-84
2022/10/30 01:08:59;;;;;;;3.15;0.77;;;;;;;13.91;100.00;101381.63;5046709;28;20484;-86
2022/10/30 01:11:24;;;;;;;8.45;1.27;;;;;;;14.00;100.00;101374.69;5050061;28;20485;-86
2022/10/30 01:13:54;;;;;;;6.32;1.33;;;;;;;14.03;100.00;101375.22;5053164;28;20045;-84
2022/10/30 01:17:07;;;;;;;5.75;1.10;;;;;;;13.97;100.00;101373.19;5044355;28;20016;-85
2022/10/30 01:19:39;;;;;;;2.17;0.43;;;;;;;13.96;100.00;101371.53;5049849;28;20041;-85
2022/10/30 01:22:10;;;;;;;7.25;1.58;;;;;;;13.93;100.00;101377.06;5049018;28;20422;-83
2022/10/30 01:24:56;;;;;;;3.33;0.70;;;;;;;13.85;100.00;101363.84;5050101;28;20029;-85
2022/10/30 01:27:56;;;;;;;7.68;0.90;;;;;;;13.81;100.00;101367.72;5039618;28;20417;-84
2022/10/30 01:30:57;;;;;;;5.75;0.80;;;;;;;13.81;100.00;101359.88;5050173;28;20039;-84
2022/10/30 01:33:28;;;;;;;10.07;0.90;;;;;;;13.86;100.00;101365.50;5050354;28;20044;-86
2022/10/30 01:36:18;;;;;;;3.40;0.82;;;;;;;13.85;100.00;101364.69;5043164;28;20037;-92
2022/10/30 01:38:49;;;;;;;4.82;0.80;;;;;;;13.87;100.00;101364.53;5045529;28;20131;-85
2022/10/30 01:41:15;;;;;;;4.47;0.88;;;;;;;13.88;100.00;101358.34;5054517;28;20043;-83
2022/10/30 01:43:42;;;;;;;5.00;0.60;;;;;;;13.88;100.00;101359.16;5049931;28;20108;-85
2022/10/30 01:46:14;;;;;;;7.88;0.50;;;;;;;13.89;100.00;101358.19;5050155;28;20029;-83
2022/10/30 01:48:45;;;;;;;5.00;0.75;;;;;;;13.92;100.00;101355.28;5047957;28;20464;-83
2022/10/30 01:51:32;;;;;;;3.60;0.73;;;;;;;13.97;100.00;101349.59;5051122;28;20105;-84
2022/10/30 01:54:31;;;;;;;5.90;0.93;;;;;;;13.95;100.00;101351.56;5046256;28;20391;-85
2022/10/30 01:57:28;;;;;;;8.63;1.05;;;;;;;13.94;100.00;101349.91;5061131;28;20054;-87
2022/10/30 01:59:58;;;;;;;;;;;;;;;13.90;100.00;101359.84;5047420;28;20049;-86
2022/10/30 02:02:23;;;;;;;6.13;0.70;;;;;;;13.92;100.00;101352.66;5051875;28;20039;-86
2022/10/30 02:04:50;;;;;;;8.25;0.85;;;;;;;13.95;100.00;101356.78;5047519;28;20511;-86
2022/10/30 02:07:15;;;;;;;8.40;1.40;;;;;;;13.95;100.00;101354.16;5050059;28;20032;-82
2022/10/30 02:09:41;;;;;;;6.78;0.73;;;;;;;13.94;100.00;101355.13;5057914;28;20456;-86
2022/10/30 02:12:08;;;;;;;3.22;0.52;;;;;;;13.89;100.00;101352.13;5049159;28;20392;-84
2022/10/30 02:14:39;;;;;;;4.68;0.82;;;;;;;13.73;100.00;101349.28;5045300;28;20056;-85
2022/10/30 02:17:07;;;;;;;4.20;0.70;;;;;;;13.58;100.00;101347.16;5052183;28;20107;-86
2022/10/30 02:19:33;;;;;;;7.60;0.75;;;;;;;13.58;100.00;101346.31;5048805;28;20086;-82
2022/10/30 02:21:58;;;;;;;5.18;1.25;;;;;;;13.53;100.00;101341.50;5041981;28;20208;-83
2022/10/30 02:24:24;;;;;;;2.72;0.93;;;;;;;13.36;100.00;101339.63;5042959;28;20037;-87
2022/10/30 02:26:49;;;;;;;9.85;2.15;;;;;;;13.16;100.00;101340.63;5055453;28;20107;-83
2022/10/30 02:29:17;;;;;;;8.15;2.75;;;;;;;13.06;100.00;101332.75;5047912;28;20103;-85
2022/10/30 02:31:43;;;;;;;8.93;1.98;;;;;;;13.03;100.00;101334.84;5039788;28;20141;-82
2022/10/30 02:34:08;;;;;;;7.45;1.85;;;;;;;13.05;100.00;101335.53;5050942;28;20052;-83
2022/10/30 02:36:34;;;;;;;4.93;1.00;;;;;;;13.07;100.00;101338.81;5052838;28;20064;-82
2022/10/30 02:38:59;;;;;;;3.38;0.82;;;;;;;13.24;100.00;101343.34;5057532;28;20114;-83
2022/10/30 02:41:25;;;;;;;7.65;0.70;;;;;;;13.44;100.00;101337.13;5061441;28;20456;-85
2022/10/30 02:43:52;;;;;;;6.40;0.93;;;;;;;13.57;100.00;101326.34;5034272;28;20033;-85
2022/10/30 02:46:18;;;;;;;8.50;0.65;;;;;;;13.58;100.00;101331.44;5062506;28;20116;-85
2022/10/30 02:48:43;;;;;;;7.40;0.80;;;;;;;13.58;100.00;101331.44;5032147;28;20124;-85
2022/10/30 02:51:08;;;;;;;5.15;0.70;;;;;;;13.54;100.00;101322.22;5051440;28;20044;-85
2022/10/30 02:53:34;;;;;;;4.65;0.85;;;;;;;13.53;100.00;101324.97;5047200;28;20029;-84
2022/10/30 02:56:08;;;;;;;5.18;0.60;;;;;;;13.53;100.00;101331.03;5043467;28;20024;-84
2022/10/30 02:58:34;;;;;;;7.70;1.00;;;;;;;13.54;100.00;101331.88;5053015;28;20024;-85
2022/10/30 03:01:14;;;;;;;5.53;0.70;;;;;;;13.52;100.00;101326.78;5055331;28;20150;-84
2022/10/30 03:03:41;;;;;;;4.95;0.52;;;;;;;13.54;100.00;101326.63;5029541;28;20619;-85
2022/10/30 03:06:09;;;;;;;5.18;0.70;;;;;;;13.53;100.00;101328.41;5034153;28;20017;-83
2022/10/30 03:08:35;;;;;;;5.47;0.70;;;;;;;13.54;100.00;101332.69;5051044;28;20493;-84
2022/10/30 03:11:04;;;;;;;2.75;0.43;;;;;;;13.54;100.00;101331.88;5053281;28;20036;-85
2022/10/30 03:13:30;;;;;;;3.72;0.50;;;;;;;13.53;100.00;101330.22;5030712;28;20440;-84
2022/10/30 03:16:14;;;;;;;4.20;0.75;;;;;;;13.51;100.00;101327.72;5031804;28;20564;-85
2022/10/30 03:18:40;;;;;;;5.00;0.90;;;;;;;13.52;100.00;101329.38;5048725;28;20085;-85
2022/10/30 03:21:07;;;;;;;9.13;1.52;;;;;;;13.59;100.00;101329.66;5048609;28;20033;-84
2022/10/30 03:23:33;;;;;;;3.28;0.60;;;;;;;13.61;100.00;101333.78;5044796;28;20094;-84
2022/10/30 03:25:59;;;;;;;4.50;0.90;;;;;;;13.65;100.00;101333.50;5052606;28;20499;-85
2022/10/30 03:28:27;;;;;;;5.40;0.50;;;;;;;13.64;100.00;101329.22;5046248;28;20056;-84
2022/10/30 03:31:05;;;;;;;4.25;0.70;;;;;;;13.63;100.00;101327.56;5053558;28;20044;-84
2022/10/30 03:33:31;;;;;;;5.32;0.90;;;;;;;13.65;100.00;101330.88;5047044;28;20029;-85
2022/10/30 03:35:57;;;;;;;4.10;0.60;;;;;;;13.66;100.00;101328.09;5029123;28;20124;-85
2022/10/30 03:38:23;;;;;;;4.05;0.70;;;;;;;13.71;100.00;101330.28;5055079;28;20029;-85
2022/10/30 03:40:48;;;;;;;4.72;0.60;;;;;;;13.74;100.00;101328.19;5045246;28;20530;-86
2022/10/30 03:43:13;;;;;;;6.80;0.60;;;;;;;13.68;100.00;101323.56;5047463;28;20033;-85
2022/10/30 03:45:39;;;;;;;10.63;1.30;;;;;;;13.54;100.00;101335.31;5055319;28;20059;-84
2022/10/30 03:48:05;;;;;;;5.63;0.70;;;;;;;13.51;100.00;101332.16;5046601;28;20040;-88
2022/10/30 03:50:31;;;;;;;2.80;0.70;;;;;;;13.47;100.00;101331.59;5045458;28;20025;-85
2022/10/30 03:52:57;;;;;;;7.50;0.70;;;;;;;13.44;100.00;101326.66;5046548;28;20045;-84
2022/10/30 03:55:24;;;;;;;5.78;0.70;;;;;;;13.48;100.00;101325.41;5044677;28;20128;-84
2022/10/30 03:57:49;;;;;;;6.78;0.90;;;;;;;13.40;100.00;101334.94;5059566;28;20050;-85
2022/10/30 04:00:16;;;;;;;6.45;0.70;;;;;;;13.32;100.00;101329.56;5060414;28;20555;-84
2022/10/30 04:02:50;;;;;;;4.13;0.90;;;;;;;13.17;100.00;101334.44;5048663;28;20199;-85
2022/10/30 04:05:18;;;;;;;6.53;0.90;;;;;;;13.09;100.00;101340.34;5045995;28;20036;-84
2022/10/30 04:07:44;;;;;;;8.90;0.88;;;;;;;13.21;100.00;101338.44;5053928;28;20025;-85
2022/10/30 04:10:10;;;;;;;4.93;0.85;;;;;;;13.30;100.00;101334.94;5049983;28;20090;-83
2022/10/30 04:12:36;;;;;;;9.27;1.00;;;;;;;13.31;100.00;101339.22;5063649;28;20032;-85
2022/10/30 04:15:02;;;;;;;3.60;1.02;;;;;;;13.32;100.00;101340.88;5046389;28;20451;-82
2022/10/30 04:17:27;;;;;;;6.63;0.85;;;;;;;13.32;100.00;101338.25;5059475;28;20032;-84
2022/10/30 04:19:53;;;;;;;4.55;0.50;;;;;;;13.30;100.00;101334.94;5062253;28;20441;-88
2022/10/30 04:22:18;;;;;;;4.28;0.90;;;;;;;13.29;100.00;101328.88;5043496;28;20399;-91
2022/10/30 04:24:44;;;;;;;6.55;0.95;;;;;;;13.31;100.00;101341.84;5057006;28;20044;-89
2022/10/30 04:27:12;;;;;;;4.13;0.57;;;;;;;13.32;100.00;101340.88;5055388;28;20029;-90
2022/10/30 04:29:37;;;;;;;5.50;0.98;;;;;;;13.31;100.00;101336.59;5058500;28;20029;-87
2022/10/30 04:32:03;;;;;;;6.28;0.50;;;;;;;13.34;100.00;101335.50;5066065;28;20035;-90
2022/10/30 04:34:28;;;;;;;8.68;0.80;;;;;;;13.32;100.00;101338.25;5061903;28;20017;-90
2022/10/30 04:36:54;;;;;;;4.30;0.88;;;;;;;13.32;100.00;101335.63;5055802;28;20060;-88
2022/10/30 04:39:20;;;;;;;6.05;0.45;;;;;;;13.31;100.00;101335.78;5031255;28;20025;-85
2022/10/30 04:41:45;;;;;;;10.85;0.70;;;;;;;13.29;100.00;101333.28;5032810;28;20024;-84
2022/10/30 04:44:10;;;;;;;4.80;0.90;;;;;;;13.31;100.00;101325.31;5050960;28;20057;-85
2022/10/30 04:46:36;;;;;;;3.47;0.40;;;;;;;13.33;100.00;101333.84;5056754;28;20059;-86
2022/10/30 04:49:01;;;;;;;3.85;0.50;;;;;;;13.29;100.00;101325.44;5049754;28;20471;-88
2022/10/30 04:51:27;;;;;;;6.97;0.40;;;;;;;13.27;100.00;101319.53;5046899;28;20536;-86
2022/10/30 04:53:53;;;;;;;4.10;0.80;;;;;;;13.26;100.00;101325.72;5027561;28;20032;-86
2022/10/30 04:56:18;;;;;;;3.22;0.47;;;;;;;13.25;100.00;101321.44;5048943;28;20510;-88
2022/10/30 04:58:44;;;;;;;9.88;0.80;;;;;;;13.27;100.00;101324.75;5031108;28;20598;-89
2022/10/30 05:01:09;;;;;;;7.47;0.82;;;;;;;13.24;100.00;101323.25;5029601;28;20029;-86
2022/10/30 05:03:34;;;;;;;5.47;1.00;;;;;;;13.16;100.00;101328.38;5048101;28;20388;-87
2022/10/30 05:06:03;;;;;;;2.85;0.52;;;;;;;13.22;100.00;101327.00;5031564;28;20024;-86
2022/10/30 05:08:29;;;;;;;7.72;1.08;;;;;;;13.12;100.00;101328.78;5055903;28;20029;-87
2022/10/30 05:10:54;;;;;;;4.20;0.77;;;;;;;12.86;100.00;101326.72;5045312;28;20037;-88
2022/10/30 05:13:20;;;;;;;5.32;0.60;;;;;;;12.91;100.00;101328.91;5029088;28;20496;-87
2022/10/30 05:15:45;;;;;;;7.03;0.63;;;;;;;13.02;100.00;101325.34;5027610;28;20498;-86
2022/10/30 05:18:11;;;;;;;6.97;0.80;;;;;;;13.03;100.00;101319.13;5033604;28;20036;-85
2022/10/30 05:20:36;;;;;;;7.88;1.83;;;;;;;13.01;100.00;101321.88;5031616;28;20103;-86
2022/10/30 05:23:02;;;;;;;7.22;0.98;;;;;;;13.07;100.00;101325.75;5054549;28;20036;-88
2022/10/30 05:25:28;;;;;;;5.75;0.70;;;;;;;13.07;100.00;101326.56;5044202;28;20024;-85
2022/10/30 05:28:01;;;;;;;4.40;0.70;;;;;;;13.08;100.00;101330.00;5026272;28;20029;-90
2022/10/30 05:30:31;;;;;;;4.00;0.95;;;;;;;13.07;100.00;101323.13;5046544;28;20025;-89
2022/10/30 05:33:00;;;;;;;6.25;0.85;;;;;;;13.02;100.00;101317.47;5046606;28;20036;-88
2022/10/30 05:35:27;;;;;;;3.53;0.73;;;;;;;13.01;100.00;101318.44;5044680;28;20022;-90
2022/10/30 05:37:53;;;;;;;4.88;1.13;;;;;;;13.00;100.00;101328.09;5028371;28;20441;-88
2022/10/30 05:40:18;;;;;;;8.00;0.65;;;;;;;13.06;100.00;101318.84;5030021;28;20116;-86
2022/10/30 05:42:47;;;;;;;6.25;0.70;;;;;;;13.06;100.00;101324.91;5029091;28;20396;-85
2022/10/30 05:45:13;;;;;;;5.40;1.10;;;;;;;13.04;100.00;101321.63;5032289;28;20025;-88
2022/10/30 05:47:39;;;;;;;2.97;0.90;;;;;;;13.07;100.00;101330.97;5046654;28;20436;-89
2022/10/30 05:50:06;;;;;;;2.90;0.55;;;;;;;13.10;100.00;101330.69;5043584;28;20071;-90
2022/10/30 05:52:32;;;;;;;6.53;0.70;;;;;;;13.11;100.00;101327.13;5050112;28;20025;-86
2022/10/30 05:54:58;;;;;;;5.07;0.75;;;;;;;13.09;100.00;101329.88;5044141;28;20021;-86
2022/10/30 05:57:23;;;;;;;9.32;1.25;;;;;;;13.05;100.00;101336.34;5050868;28;20115;-87
2022/10/30 05:59:49;;;;;;;4.18;0.82;;;;;;;13.09;100.00;101337.72;5049114;28;20039;-90
2022/10/30 06:02:17;;;;;;;5.15;0.80;;;;;;;13.12;100.00;101339.22;5048937;28;20468;-87
2022/10/30 06:04:43;;;;;;;3.58;0.60;;;;;;;13.13;100.00;101335.66;5065080;28;20056;-88
2022/10/30 06:07:10;;;;;;;7.07;0.80;;;;;;;13.15;100.00;101342.41;5029346;28;20052;-89
2022/10/30 06:09:35;;;;;;;6.80;0.70;;;;;;;13.16;100.00;101338.03;5038569;28;20020;-87
2022/10/30 06:12:01;;;;;;;5.35;1.00;;;;;;;13.11;100.00;101335.78;5044273;28;20052;-87
2022/10/30 06:14:26;;;;;;;2.85;0.60;;;;;;;13.10;100.00;101346.41;5026499;28;20044;-88
2022/10/30 06:16:52;;;;;;;3.70;0.50;;;;;;;13.09;100.00;101344.75;5041128;28;20029;-87
2022/10/30 06:19:17;;;;;;;4.97;0.50;;;;;;;13.04;100.00;101345.16;5049504;28;20475;-88
2022/10/30 06:21:42;;;;;;;2.75;0.52;;;;;;;13.07;100.00;101341.44;5029583;28;20029;-86
2022/10/30 06:24:08;;;;;;;5.25;0.80;;;;;;;13.12;100.00;101341.84;5059835;28;20419;-86
2022/10/30 06:26:34;;;;;;;4.13;0.57;;;;;;;13.15;100.00;101341.56;5045029;28;20104;-89
2022/10/30 06:28:59;;;;;;;3.88;0.50;;;;;;;13.20;100.00;101342.84;5045716;28;20057;-88
2022/10/30 06:31:24;;;;;;;7.47;0.95;;;;;;;13.22;100.00;101340.09;5024828;28;20028;-85
2022/10/30 06:33:50;;;;;;;5.43;1.33;;;;;;;13.22;100.00;101333.06;5055726;28;20459;-83
2022/10/30 06:36:16;;;;;;;7.32;0.57;;;;;;;13.24;100.00;101338.13;5030178;28;20029;-89
2022/10/30 06:38:42;;;;;;;4.32;0.50;;;;;;;13.25;100.00;101342.38;5049988;28;20176;-88
2022/10/30 06:41:07;;;;;;;5.40;0.50;;;;;;;13.28;100.00;101342.94;5045745;28;20368;-88
2022/10/30 06:43:33;;;;;;;7.80;0.93;;;;;;;13.33;100.00;101344.31;5033674;28;20043;-89
2022/10/30 06:45:59;;;;;;;3.90;1.00;;;;;;;13.39;100.00;101349.81;5028533;28;20504;-83
2022/10/30 06:48:24;;;;;;;6.50;0.50;;;;;;;13.43;100.00;101350.34;5029157;28;20116;-90
2022/10/30 06:50:57;;;;;;;4.63;0.47;;;;;;;13.44;100.00;101346.78;5047069;28;20074;-86
2022/10/30 06:53:24;;;;;;;7.25;1.10;;;;;;;13.53;100.00;101345.91;5049936;28;20087;-90
2022/10/30 06:56:00;;;;;;;8.10;0.60;;;;;;;13.53;100.00;101349.38;5045555;28;20035;-86
2022/10/30 06:58:26;;;;;;;4.22;0.73;;;;;;;13.53;100.00;101353.78;5047362;28;20036;-86
2022/10/30 07:00:52;;;;;;;3.50;0.70;;;;;;;13.51;100.00;101359.16;5044027;28;20057;-86
2022/10/30 07:03:18;;;;;;;3.75;0.93;;;;;;;13.53;100.00;101357.22;5045366;28;20084;-86
2022/10/30 07:05:43;;;;;;;6.22;1.08;;;;;;;13.58;100.00;101362.03;5028653;28;20548;-85
2022/10/30 07:08:09;;;;;;;4.30;0.80;;;;;;;13.57;100.00;101366.44;5046496;28;20115;-83
2022/10/30 07:10:35;;;;;;;4.60;0.95;;;;;;;13.64;100.00;101371.13;5045229;28;20443;-86
2022/10/30 07:13:00;;;;;;;3.70;1.30;;;;;;;13.72;100.00;101360.72;5024503;28;20373;-87
2022/10/30 07:15:26;;;;;;;4.80;0.68;;;;;;;13.79;100.00;101365.25;5029780;28;20388;-88
2022/10/30 07:17:56;;;;;;;3.70;0.40;;;;;;;13.89;100.00;101367.84;5029899;28;20497;-88
2022/10/30 07:20:21;;;;;;;6.70;0.70;;;;;;;13.92;100.00;101367.56;5044288;28;20094;-83
2022/10/30 07:22:47;;;;;;;4.45;0.50;;;;;;;13.96;100.00;101363.69;5036756;28;20070;-86
2022/10/30 07:25:12;;;;;;;7.32;0.50;;;;;;;14.00;100.00;101359.81;5055667;28;20032;-86
2022/10/30 07:27:48;;;;;;;4.70;0.50;;;;;;;14.10;100.00;101355.34;5029343;28;20029;-84
2022/10/30 07:30:15;;;;;;;;;;;;;;;14.17;99.16;101359.03;5040154;28;20168;-84
2022/10/30 07:32:41;;;;;;;4.35;0.77;;;;;;;14.27;100.00;101361.56;5048321;28;19916;-85
2022/10/30 07:35:08;;;;;;;5.32;0.60;;;;;;;14.39;100.00;101362.22;5026714;28;20492;-87
2022/10/30 07:37:33;;;;;;;5.65;0.63;;;;;;;14.44;100.00;101362.63;5043859;28;20123;-88
2022/10/30 07:39:58;;;;;;;2.63;0.50;;;;;;;14.47;100.00;101362.34;5043974;28;20016;-89
2022/10/30 07:42:24;;;;;;;5.55;0.75;;;;;;;14.56;98.79;101367.50;5041971;28;20143;-82
2022/10/30 07:44:49;;;;;;;5.28;0.52;;;;;;;14.66;99.30;101367.41;5054201;28;20036;-87
2022/10/30 07:47:15;;;;;;;2.92;0.50;;;;;;;14.73;99.34;101368.47;5045999;28;20022;-84
2022/10/30 07:49:40;;;;;;;7.05;0.47;;;;;;;14.82;99.21;101370.22;5044131;28;20028;-88
2022/10/30 07:52:06;;;;;;;4.60;0.60;;;;;;;14.87;98.41;101372.38;5032143;28;20020;-86
2022/10/30 07:54:31;;;;;;;8.23;0.65;;;;;;;14.90;98.47;101366.84;5025594;28;20060;-85
2022/10/30 07:56:57;;;;;;;4.30;0.35;;;;;;;14.97;96.72;101364.44;5042536;28;20039;-84
2022/10/30 07:59:26;;;;;;;3.60;0.88;;;;;;;14.98;97.92;101363.47;5044656;28;20029;-85
2022/10/30 08:01:51;;;;;;;5.85;0.40;;;;;;;15.05;97.43;101364.50;5042154;28;20029;-85
2022/10/30 08:04:17;;;;;;;5.55;0.65;;;;;;;15.10;97.48;101365.72;5043547;28;20083;-86
2022/10/30 08:06:42;;;;;;;4.72;0.82;;;;;;;15.17;96.85;101355.41;5041976;28;20020;-81
2022/10/30 08:09:09;;;;;;;5.35;1.08;;;;;;;15.19;97.03;101367.38;5045769;28;20079;-86
2022/10/30 08:11:34;;;;;;;6.57;0.60;;;;;;;15.22;96.92;101358.38;5040487;28;20123;-82
2022/10/30 08:14:00;;;;;;;7.15;0.95;;;;;;;15.27;96.60;101362.22;5040905;28;20053;-82
2022/10/30 08:16:28;;;;;;;5.22;0.40;;;;;;;15.35;95.73;101369.31;5020614;28;20068;-86
2022/10/30 08:18:54;;;;;;;5.82;0.60;;;;;;;15.39;96.45;101362.78;5027249;28;20385;-84
2022/10/30 08:21:19;;;;;;;5.82;0.45;;;;;;;15.44;96.67;101352.66;5043948;28;20439;-83
2022/10/30 08:23:44;;;;;;;3.78;0.50;;;;;;;15.49;96.46;101358.25;5046933;28;20039;-85
2022/10/30 08:26:10;;;;;;;4.72;0.50;;;;;;;15.53;96.62;101351.72;5048653;28;20334;-83
2022/10/30 08:28:36;;;;;;;2.95;0.40;;;;;;;15.63;96.16;101356.88;5053962;28;20027;-85
2022/10/30 08:31:01;;;;;;;5.45;0.50;;;;;;;15.80;95.43;101352.53;5047378;28;20095;-86
2022/10/30 08:33:27;;;;;;;6.13;0.55;;;;;;;15.89;95.13;101352.44;5044024;28;20045;-83
2022/10/30 08:35:56;;;;;;;29.15;2.75;;;;;;;15.88;95.27;101353.41;5027705;28;20040;-83
2022/10/30 08:38:22;;;;;;;6.60;0.60;;;;;;;15.98;94.78;101355.09;5053356;28;20052;-84
2022/10/30 08:40:48;;;;;;;9.40;0.90;;;;;;;16.14;93.63;101350.69;5044938;28;20078;-83
2022/10/30 08:43:14;;;;;;;3.50;0.52;;;;;;;16.14;93.55;101349.88;5038082;28;20461;-83
2022/10/30 08:45:40;;;;;;;6.10;0.35;;;;;;;16.13;94.13;101348.22;5047494;28;20021;-83
2022/10/30 08:48:09;;;;;;;5.80;0.65;;;;;;;16.23;93.83;101347.13;5029586;28;20067;-81
2022/10/30 08:50:34;;;;;;;4.30;1.05;;;;;;;16.35;92.74;101349.44;5047343;28;20224;-81
2022/10/30 08:53:11;;;;;;;5.30;0.93;;;;;;;16.50;90.98;101350.47;5046784;28;20481;-83
2022/10/30 08:55:36;;;;;;;5.72;0.60;;;;;;;16.65;90.47;101343.63;5047382;28;20368;-82
2022/10/30 08:58:02;;;;;;;3.08;0.50;;;;;;;16.66;91.56;101353.16;5045862;28;20037;-83
2022/10/30 09:00:28;;;;;;;5.68;0.52;;;;;;;16.74;90.34;101345.28;5048421;28;20058;-83
2022/10/30 09:02:54;;;;;;;4.65;0.45;;;;;;;16.77;90.50;101352.84;5049195;28;20036;-82
2022/10/30 09:05:20;;;;;;;3.47;0.35;;;;;;;16.83;89.80;101343.47;5047219;28;20033;-83
2022/10/30 09:07:46;;;;;;;5.18;0.40;;;;;;;16.88;89.76;101347.25;5047068;28;20025;-83
2022/10/30 09:10:13;;;;;;;5.18;0.60;;;;;;;16.98;89.72;101349.72;5057240;28;20043;-82
2022/10/30 09:12:39;;;;;;;5.78;0.85;;;;;;;17.04;89.15;101343.78;5047400;28;20441;-83
2022/10/30 09:15:06;;;;;;;3.95;0.50;;;;;;;17.11;88.75;101341.31;5046151;28;20461;-83
2022/10/30 09:17:31;;;;;;;7.03;0.50;;;;;;;17.21;88.30;101347.22;5047464;28;20079;-82
2022/10/30 09:19:57;;;;;;;4.38;0.63;;;;;;;17.33;87.92;101351.19;5030045;28;20033;-82
2022/10/30 09:22:22;;;;;;;4.18;0.77;;;;;;;17.42;86.95;101342.28;5047136;28;20037;-83
2022/10/30 09:24:48;;;;;;;4.38;0.50;;;;;;;17.59;86.41;101340.41;5046904;28;20114;-83
2022/10/30 09:27:14;;;;;;;5.22;0.73;;;;;;;17.61;86.15;101346.31;5049877;28;20031;-83
2022/10/30 09:29:39;;;;;;;4.30;0.70;;;;;;;17.67;86.16;101336.97;5049003;28;20448;-83
2022/10/30 09:32:09;;;;;;;3.08;0.43;;;;;;;17.71;86.27;101338.25;5032313;28;20021;-83
2022/10/30 09:34:36;;;;;;;7.10;0.70;;;;;;;17.72;86.31;101340.72;5032377;28;20033;-84
2022/10/30 09:37:02;;;;;;;9.15;0.65;;;;;;;17.83;85.36;101335.09;5048865;28;20089;-83
2022/10/30 09:39:29;;;;;;;11.15;1.27;;;;;;;17.88;85.37;101339.84;5050913;28;20100;-84
2022/10/30 09:42:09;;;;;;;5.85;0.40;;;;;;;17.93;82.70;101345.44;5032618;28;20021;-83
2022/10/30 09:45:06;;;;;;;6.47;0.52;;;;;;;17.80;83.67;101348.63;5049719;28;20032;-84
2022/10/30 09:48:02;;;;;;;3.95;0.47;;;;;;;17.77;83.50;101348.13;5050532;28;20068;-84
2022/10/30 09:50:31;;;;;;;4.57;0.55;;;;;;;17.92;85.80;101349.06;5046519;28;20063;-83
2022/10/30 09:53:16;;;;;;;3.08;0.50;;;;;;;17.94;82.71;101351.53;5050370;28;20033;-83
2022/10/30 09:55:57;;;;;;;7.05;0.60;;;;;;;18.07;81.55;101351.78;5048633;28;21368;-84
2022/10/30 09:58:28;;;;;;;3.97;0.60;;;;;;;18.13;84.32;101349.28;5055082;28;20115;-83
2022/10/30 10:01:22;;;;;;;9.60;0.93;;;;;;;18.11;82.33;101348.63;5048765;28;20102;-82
2022/10/30 10:04:13;;;;;;;6.28;0.50;;;;;;;18.16;83.76;101341.03;5042890;28;20060;-83
2022/10/30 10:06:42;;;;;;;6.30;0.68;;;;;;;18.25;83.88;101333.91;5029883;28;20607;-82
2022/10/30 10:09:31;;;;;;;5.80;0.40;;;;;;;18.44;80.71;101332.63;5032089;28;20033;-83
2022/10/30 10:12:23;;;;;;;4.93;0.40;;;;;;;18.43;81.44;101333.63;5049206;28;20401;-84
2022/10/30 10:14:50;;;;;;;5.93;0.60;;;;;;;18.42;81.63;101334.63;5024555;28;20446;-84
2022/10/30 10:17:39;;;;;;;4.85;0.30;;;;;;;18.41;79.39;101331.19;5047651;28;20499;-84
2022/10/30 10:20:15;;;;;;;3.10;0.40;;;;;;;18.44;81.24;101325.53;5042372;28;20447;-83
2022/10/30 10:22:48;;;;;;;5.28;0.77;;;;;;;18.38;82.71;101323.59;5049442;28;20090;-81
2022/10/30 10:25:17;;;;;;;8.15;0.57;;;;;;;18.33;83.43;101325.94;5050181;28;20035;-83
2022/10/30 10:28:11;;;;;;;4.53;0.40;;;;;;;18.22;81.94;101324.53;5057575;28;20025;-83
2022/10/30 10:30:55;;;;;;;4.35;0.43;;;;;;;18.32;81.22;101323.47;5030680;28;20037;-84
2022/10/30 10:34:01;;;;;;;4.68;0.50;;;;;;;18.38;81.36;101320.97;5031057;28;20108;-83
2022/10/30 10:36:34;;;;;;;3.50;0.30;;;;;;;18.46;82.10;101325.34;5025112;28;20033;-82
2022/10/30 10:39:14;;;;;;;5.95;0.30;;;;;;;18.49;79.07;101325.00;5042118;28;20485;-84
2022/10/30 10:41:43;;;;;;;6.80;0.63;;;;;;;18.46;82.61;101320.06;5048832;28;20392;-83
2022/10/30 10:44:51;;;;;;;4.30;0.40;;;;;;;18.37;81.96;101321.16;5031237;28;20082;-83
2022/10/30 10:47:44;;;;;;;6.05;0.65;;;;;;;18.43;83.98;101317.81;4967771;28;20034;-83
2022/10/30 10:50:20;;;;;;;3.15;0.45;;;;;;;18.51;84.14;101309.81;4972823;28;20858;-83
2022/10/30 10:53:21;;;;;;;3.92;0.47;;;;;;;18.60;80.97;101307.94;4955051;28;20491;-82
2022/10/30 10:55:52;;;;;;;5.70;0.40;;;;;;;18.61;83.63;101302.53;4967767;28;20034;-83
2022/10/30 10:58:32;;;;;;;3.35;0.38;;;;;;;18.55;83.59;101309.28;4959649;28;20113;-83
2022/10/30 11:00:58;;;;;;;3.75;0.50;;;;;;;18.64;81.99;101310.09;4949425;28;20093;-83
2022/10/30 11:03:36;;;;;;;5.95;0.57;;;;;;;18.83;79.48;101295.59;4967917;28;20062;-83
2022/10/30 11:06:23;;;;;;;3.50;0.52;;;;;;;18.96;78.24;101297.59;4967874;28;20110;-82
2022/10/30 11:08:49;;;;;;;4.22;0.30;;;;;;;19.00;80.09;101286.50;4943793;28;20404;-83
2022/10/30 11:11:14;;;;;;;5.25;0.57;;;;;;;19.07;81.30;101291.88;4959643;28;20475;-83
2022/10/30 11:13:42;;;;;;;6.80;0.55;;;;;;;19.11;80.90;101299.28;4957880;28;20046;-83
2022/10/30 11:16:10;;;;;;;4.45;0.80;;;;;;;19.13;79.77;101296.44;4922203;29;20040;-82
2022/10/30 11:18:35;;;;;;;3.45;0.57;;;;;;;19.24;80.23;101288.09;4932777;29;20046;-83
2022/10/30 11:21:27;;;;;;;5.05;0.82;;;;;;;19.21;80.85;101286.63;4959804;28;20051;-83
2022/10/30 11:23:52;;;;;;;5.82;0.43;;;;;;;19.17;81.07;101293.28;4985653;28;20065;-83
2022/10/30 11:26:19;;;;;;;2.95;0.68;;;;;;;19.17;81.36;101288.00;4986967;28;20038;-83
2022/10/30 11:29:12;;;;;;;6.75;0.47;;;;;;;19.21;79.54;101285.81;4967656;28;20482;-83